sensor_id;sensor_type;location;lat;lon;timestamp;pressure;altitude;pressure_sealevel;temperature;humidity
40730;BME280;26418;50.070;8.436;2022-08-21T00:01:44;100070.34;;;19.44;53.81
40730;BME280;26418;50.070;8.436;2022-08-21T00:04:10;100055.41;;;19.42;53.93
40730;BME280;26418;50.070;8.436;2022-08-21T00:06:37;100054.41;;;19.50;54.00
40730;BME280;26418;50.070;8.436;2022-08-21T00:09:04;100057.59;;;19.52;53.76
40730;BME280;26418;50.070;8.436;2022-08-21T00:11:30;100039.75;;;19.42;53.85
40730;BME280;26418;50.070;8.436;2022-08-21T00:13:55;100051.16;;;19.44;54.12
40730;BME280;26418;50.070;8.436;2022-08-21T00:16:21;100041.59;;;19.38;54.18
40730;BME280;26418;50.070;8.436;2022-08-21T00:18:47;100045.72;;;19.28;54.46
40730;BME280;26418;50.070;8.436;2022-08-21T00:21:14;100039.34;;;19.24;54.78
40730;BME280;26418;50.070;8.436;2022-08-21T00:23:39;100039.63;;;19.19;54.96
40730;BME280;26418;50.070;8.436;2022-08-21T00:26:05;100042.72;;;19.17;55.37
40730;BME280;26418;50.070;8.436;2022-08-21T00:28:31;100034.13;;;19.19;55.66
40730;BME280;26418;50.070;8.436;2022-08-21T00:30:57;100036.16;;;19.22;55.51
40730;BME280;26418;50.070;8.436;2022-08-21T00:33:23;100030.50;;;19.15;55.82
40730;BME280;26418;50.070;8.436;2022-08-21T00:35:48;100041.22;;;19.20;55.86
40730;BME280;26418;50.070;8.436;2022-08-21T00:38:14;100032.75;;;19.09;56.15
40730;BME280;26418;50.070;8.436;2022-08-21T00:43:09;100045.78;;;19.16;56.41
40730;BME280;26418;50.070;8.436;2022-08-21T00:45:35;100035.91;;;19.11;56.73
40730;BME280;26418;50.070;8.436;2022-08-21T00:48:01;100031.56;;;19.10;56.75
40730;BME280;26418;50.070;8.436;2022-08-21T00:50:31;100046.09;;;19.11;56.83
40730;BME280;26418;50.070;8.436;2022-08-21T00:52:58;100049.53;;;19.08;56.90
40730;BME280;26418;50.070;8.436;2022-08-21T00:55:26;100045.84;;;19.00;56.85
40730;BME280;26418;50.070;8.436;2022-08-21T00:57:54;100029.88;;;18.90;56.96
40730;BME280;26418;50.070;8.436;2022-08-21T01:00:31;100046.44;;;18.93;56.96
40730;BME280;26418;50.070;8.436;2022-08-21T01:02:59;100043.41;;;18.82;57.01
40730;BME280;26418;50.070;8.436;2022-08-21T01:05:26;100044.09;;;18.79;57.28
40730;BME280;26418;50.070;8.436;2022-08-21T01:07:52;100051.88;;;18.77;57.53
40730;BME280;26418;50.070;8.436;2022-08-21T01:10:18;100050.56;;;18.71;57.83
40730;BME280;26418;50.070;8.436;2022-08-21T01:12:44;100049.31;;;18.68;57.88
40730;BME280;26418;50.070;8.436;2022-08-21T01:15:12;100040.38;;;18.56;58.23
40730;BME280;26418;50.070;8.436;2022-08-21T01:17:40;100050.28;;;18.60;58.24
40730;BME280;26418;50.070;8.436;2022-08-21T01:20:07;100041.16;;;18.56;58.51
40730;BME280;26418;50.070;8.436;2022-08-21T01:22:33;100051.69;;;18.54;58.93
40730;BME280;26418;50.070;8.436;2022-08-21T01:24:59;100052.84;;;18.53;59.19
40730;BME280;26418;50.070;8.436;2022-08-21T01:27:24;100037.00;;;18.46;59.58
40730;BME280;26418;50.070;8.436;2022-08-21T01:30:23;100067.41;;;18.57;59.97
40730;BME280;26418;50.070;8.436;2022-08-21T01:32:41;100053.81;;;18.61;60.00
40730;BME280;26418;50.070;8.436;2022-08-21T01:35:08;100051.44;;;18.59;60.06
40730;BME280;26418;50.070;8.436;2022-08-21T01:37:34;100052.22;;;18.60;60.35
40730;BME280;26418;50.070;8.436;2022-08-21T01:39:59;100051.88;;;18.61;60.88
40730;BME280;26418;50.070;8.436;2022-08-21T01:42:25;100045.16;;;18.59;60.90
40730;BME280;26418;50.070;8.436;2022-08-21T01:44:51;100047.81;;;18.55;61.05
40730;BME280;26418;50.070;8.436;2022-08-21T01:47:16;100045.75;;;18.52;61.41
40730;BME280;26418;50.070;8.436;2022-08-21T01:49:43;100041.59;;;18.42;61.75
40730;BME280;26418;50.070;8.436;2022-08-21T01:52:09;100045.50;;;18.41;61.94
40730;BME280;26418;50.070;8.436;2022-08-21T01:54:35;100043.25;;;18.31;61.97
40730;BME280;26418;50.070;8.436;2022-08-21T01:57:01;100036.19;;;18.30;62.27
40730;BME280;26418;50.070;8.436;2022-08-21T01:59:27;100038.91;;;18.30;62.40
40730;BME280;26418;50.070;8.436;2022-08-21T02:01:53;100038.91;;;18.30;62.70
40730;BME280;26418;50.070;8.436;2022-08-21T02:04:22;100027.78;;;18.22;62.88
40730;BME280;26418;50.070;8.436;2022-08-21T02:06:48;100025.81;;;18.23;63.15
40730;BME280;26418;50.070;8.436;2022-08-21T02:09:13;100037.13;;;18.21;63.28
40730;BME280;26418;50.070;8.436;2022-08-21T02:11:40;100033.16;;;18.19;63.51
40730;BME280;26418;50.070;8.436;2022-08-21T02:14:12;100028.00;;;18.17;63.90
40730;BME280;26418;50.070;8.436;2022-08-21T02:16:43;100031.56;;;18.18;64.12
40730;BME280;26418;50.070;8.436;2022-08-21T02:19:10;100015.41;;;18.13;64.27
40730;BME280;26418;50.070;8.436;2022-08-21T02:21:35;100031.91;;;18.16;64.36
40730;BME280;26418;50.070;8.436;2022-08-21T02:24:01;100021.09;;;18.07;64.58
40730;BME280;26418;50.070;8.436;2022-08-21T02:26:27;100036.13;;;18.14;64.71
40730;BME280;26418;50.070;8.436;2022-08-21T02:28:53;100035.16;;;18.06;64.91
40730;BME280;26418;50.070;8.436;2022-08-21T02:31:19;100012.28;;;17.86;65.06
40730;BME280;26418;50.070;8.436;2022-08-21T02:33:44;100028.91;;;17.93;65.06
40730;BME280;26418;50.070;8.436;2022-08-21T02:36:11;100026.50;;;17.91;65.30
40730;BME280;26418;50.070;8.436;2022-08-21T02:38:38;100018.88;;;17.97;65.37
40730;BME280;26418;50.070;8.436;2022-08-21T02:41:08;100013.84;;;17.99;65.44
40730;BME280;26418;50.070;8.436;2022-08-21T02:43:34;100016.94;;;17.98;65.47
40730;BME280;26418;50.070;8.436;2022-08-21T02:46:00;100017.94;;;17.93;65.48
40730;BME280;26418;50.070;8.436;2022-08-21T02:48:29;100016.63;;;17.87;65.52
40730;BME280;26418;50.070;8.436;2022-08-21T02:51:08;100012.28;;;17.86;65.58
40730;BME280;26418;50.070;8.436;2022-08-21T02:53:34;100019.34;;;17.87;65.64
40730;BME280;26418;50.070;8.436;2022-08-21T02:56:03;100016.94;;;17.85;65.47
40730;BME280;26418;50.070;8.436;2022-08-21T02:58:37;100026.41;;;17.88;65.40
40730;BME280;26418;50.070;8.436;2022-08-21T03:01:04;100022.88;;;17.87;65.56
40730;BME280;26418;50.070;8.436;2022-08-21T03:03:30;100025.59;;;17.87;65.44
40730;BME280;26418;50.070;8.436;2022-08-21T03:05:55;100023.56;;;17.84;65.65
40730;BME280;26418;50.070;8.436;2022-08-21T03:08:22;100025.16;;;17.85;65.57
40730;BME280;26418;50.070;8.436;2022-08-21T03:10:51;100014.31;;;17.89;65.68
40730;BME280;26418;50.070;8.436;2022-08-21T03:13:18;100013.97;;;17.90;65.43
40730;BME280;26418;50.070;8.436;2022-08-21T03:15:46;100001.34;;;17.86;65.47
40730;BME280;26418;50.070;8.436;2022-08-21T03:18:12;100008.81;;;17.89;65.57
40730;BME280;26418;50.070;8.436;2022-08-21T03:20:38;100016.94;;;17.85;65.62
40730;BME280;26418;50.070;8.436;2022-08-21T03:23:05;100010.59;;;17.81;65.84
40730;BME280;26418;50.070;8.436;2022-08-21T03:25:31;100015.50;;;17.75;65.82
40730;BME280;26418;50.070;8.436;2022-08-21T03:27:59;100017.00;;;17.73;66.17
40730;BME280;26418;50.070;8.436;2022-08-21T03:30:24;100015.28;;;17.68;66.25
40730;BME280;26418;50.070;8.436;2022-08-21T03:32:50;100017.94;;;17.65;66.25
40730;BME280;26418;50.070;8.436;2022-08-21T03:35:17;100020.56;;;17.61;66.27
40730;BME280;26418;50.070;8.436;2022-08-21T03:37:43;100018.50;;;17.58;66.21
40730;BME280;26418;50.070;8.436;2022-08-21T03:40:10;100014.53;;;17.55;66.03
40730;BME280;26418;50.070;8.436;2022-08-21T03:42:36;100025.47;;;17.55;65.85
40730;BME280;26418;50.070;8.436;2022-08-21T03:45:03;100023.41;;;17.52;66.00
40730;BME280;26418;50.070;8.436;2022-08-21T03:47:28;100025.69;;;17.50;66.11
40730;BME280;26418;50.070;8.436;2022-08-21T03:49:54;100019.78;;;17.48;66.27
40730;BME280;26418;50.070;8.436;2022-08-21T03:52:19;100024.91;;;17.50;66.44
40730;BME280;26418;50.070;8.436;2022-08-21T03:54:45;100027.06;;;17.56;66.15
40730;BME280;26418;50.070;8.436;2022-08-21T03:57:10;100026.25;;;17.56;66.17
40730;BME280;26418;50.070;8.436;2022-08-21T03:59:36;100025.69;;;17.50;66.25
40730;BME280;26418;50.070;8.436;2022-08-21T04:02:04;100024.00;;;17.46;66.71
40730;BME280;26418;50.070;8.436;2022-08-21T04:04:30;100025.03;;;17.41;66.88
40730;BME280;26418;50.070;8.436;2022-08-21T04:06:56;100035.50;;;17.39;67.09
40730;BME280;26418;50.070;8.436;2022-08-21T04:09:23;100037.00;;;17.36;67.31
40730;BME280;26418;50.070;8.436;2022-08-21T04:11:49;100046.25;;;17.32;67.37
40730;BME280;26418;50.070;8.436;2022-08-21T04:14:15;100038.94;;;17.23;67.38
40730;BME280;26418;50.070;8.436;2022-08-21T04:16:42;100046.00;;;17.24;67.51
40730;BME280;26418;50.070;8.436;2022-08-21T04:19:08;100040.19;;;17.13;67.46
40730;BME280;26418;50.070;8.436;2022-08-21T04:21:36;100048.38;;;17.13;67.58
40730;BME280;26418;50.070;8.436;2022-08-21T04:24:03;100045.09;;;17.08;67.62
40730;BME280;26418;50.070;8.436;2022-08-21T04:26:29;100049.09;;;17.10;67.79
40730;BME280;26418;50.070;8.436;2022-08-21T04:28:56;100057.88;;;17.16;67.77
40730;BME280;26418;50.070;8.436;2022-08-21T04:31:23;100053.19;;;17.17;67.80
40730;BME280;26418;50.070;8.436;2022-08-21T04:33:49;100054.31;;;17.16;67.81
40730;BME280;26418;50.070;8.436;2022-08-21T04:36:15;100056.38;;;17.19;67.83
40730;BME280;26418;50.070;8.436;2022-08-21T04:38:41;100063.75;;;17.18;68.02
40730;BME280;26418;50.070;8.436;2022-08-21T04:41:06;100069.22;;;17.18;67.79
40730;BME280;26418;50.070;8.436;2022-08-21T04:43:32;100070.72;;;17.16;67.80
40730;BME280;26418;50.070;8.436;2022-08-21T04:45:57;100069.47;;;17.13;67.78
40730;BME280;26418;50.070;8.436;2022-08-21T04:48:26;100076.84;;;17.12;67.77
40730;BME280;26418;50.070;8.436;2022-08-21T04:50:57;100078.00;;;17.11;67.83
40730;BME280;26418;50.070;8.436;2022-08-21T04:54:13;100069.00;;;17.11;67.89
40730;BME280;26418;50.070;8.436;2022-08-21T04:56:41;100077.78;;;17.17;68.00
40730;BME280;26418;50.070;8.436;2022-08-21T04:59:13;100073.44;;;17.16;67.93
40730;BME280;26418;50.070;8.436;2022-08-21T05:01:41;100077.53;;;17.22;67.84
40730;BME280;26418;50.070;8.436;2022-08-21T05:04:11;100085.41;;;17.23;67.75
40730;BME280;26418;50.070;8.436;2022-08-21T05:06:38;100076.75;;;17.21;67.50
40730;BME280;26418;50.070;8.436;2022-08-21T05:09:04;100083.00;;;17.22;67.60
40730;BME280;26418;50.070;8.436;2022-08-21T05:11:31;100083.47;;;17.24;67.34
40730;BME280;26418;50.070;8.436;2022-08-21T05:13:57;100088.59;;;17.25;67.18
40730;BME280;26418;50.070;8.436;2022-08-21T05:16:22;100100.34;;;17.26;66.79
40730;BME280;26418;50.070;8.436;2022-08-21T05:18:48;100096.47;;;17.27;66.40
40730;BME280;26418;50.070;8.436;2022-08-21T05:21:13;100093.38;;;17.28;66.11
40730;BME280;26418;50.070;8.436;2022-08-21T05:23:38;100092.25;;;17.29;65.45
40730;BME280;26418;50.070;8.436;2022-08-21T05:26:04;100092.47;;;17.37;65.13
40730;BME280;26418;50.070;8.436;2022-08-21T05:30:59;100088.56;;;17.50;65.84
40730;BME280;26418;50.070;8.436;2022-08-21T05:33:24;100091.22;;;17.59;66.24
40730;BME280;26418;50.070;8.436;2022-08-21T05:35:51;100090.97;;;17.64;66.50
40730;BME280;26418;50.070;8.436;2022-08-21T05:38:18;100093.13;;;17.71;66.51
40730;BME280;26418;50.070;8.436;2022-08-21T05:40:44;100093.69;;;17.76;66.54
40730;BME280;26418;50.070;8.436;2022-08-21T05:43:10;100100.16;;;17.84;66.22
40730;BME280;26418;50.070;8.436;2022-08-21T05:45:36;100099.22;;;17.92;66.03
40730;BME280;26418;50.070;8.436;2022-08-21T05:48:19;100094.44;;;18.02;65.86
40730;BME280;26418;50.070;8.436;2022-08-21T05:50:46;100095.81;;;18.08;65.20
40730;BME280;26418;50.070;8.436;2022-08-21T05:53:13;100102.63;;;18.14;64.86
40730;BME280;26418;50.070;8.436;2022-08-21T05:55:39;100101.22;;;18.20;64.31
40730;BME280;26418;50.070;8.436;2022-08-21T05:58:05;100096.66;;;18.25;63.84
40730;BME280;26418;50.070;8.436;2022-08-21T06:00:31;100094.91;;;18.32;63.43
40730;BME280;26418;50.070;8.436;2022-08-21T06:02:57;100099.00;;;18.38;63.21
40730;BME280;26418;50.070;8.436;2022-08-21T06:05:23;100103.88;;;18.45;63.10
40730;BME280;26418;50.070;8.436;2022-08-21T06:07:49;100098.16;;;18.50;62.87
40730;BME280;26418;50.070;8.436;2022-08-21T06:10:14;100097.13;;;18.55;62.64
40730;BME280;26418;50.070;8.436;2022-08-21T06:12:40;100107.91;;;18.64;62.25
40730;BME280;26418;50.070;8.436;2022-08-21T06:15:06;100114.38;;;18.72;62.11
40730;BME280;26418;50.070;8.436;2022-08-21T06:17:31;100111.81;;;18.79;61.65
40730;BME280;26418;50.070;8.436;2022-08-21T06:19:57;100102.63;;;18.87;61.11
40730;BME280;26418;50.070;8.436;2022-08-21T06:22:22;100102.03;;;18.94;60.61
40730;BME280;26418;50.070;8.436;2022-08-21T06:24:48;100089.50;;;18.93;60.49
40730;BME280;26418;50.070;8.436;2022-08-21T06:27:14;100109.81;;;19.08;60.30
40730;BME280;26418;50.070;8.436;2022-08-21T06:29:40;100084.38;;;19.07;60.08
40730;BME280;26418;50.070;8.436;2022-08-21T06:32:06;100105.22;;;19.28;59.67
40730;BME280;26418;50.070;8.436;2022-08-21T06:34:36;100098.06;;;19.39;59.61
40730;BME280;26418;50.070;8.436;2022-08-21T06:37:03;100098.66;;;19.48;59.11
40730;BME280;26418;50.070;8.436;2022-08-21T06:39:29;100091.75;;;19.55;58.65
40730;BME280;26418;50.070;8.436;2022-08-21T06:41:55;100102.53;;;19.63;58.33
40730;BME280;26418;50.070;8.436;2022-08-21T06:44:20;100094.09;;;19.72;57.97
40730;BME280;26418;50.070;8.436;2022-08-21T06:46:46;100089.97;;;19.82;57.66
40730;BME280;26418;50.070;8.436;2022-08-21T06:49:11;100096.84;;;19.88;56.77
40730;BME280;26418;50.070;8.436;2022-08-21T06:51:38;100089.38;;;19.89;57.03
40730;BME280;26418;50.070;8.436;2022-08-21T06:54:04;100088.38;;;19.97;56.90
40730;BME280;26418;50.070;8.436;2022-08-21T06:56:29;100089.34;;;20.05;56.77
40730;BME280;26418;50.070;8.436;2022-08-21T06:58:54;100096.63;;;20.17;56.51
40730;BME280;26418;50.070;8.436;2022-08-21T07:01:23;100089.19;;;20.17;56.28
40730;BME280;26418;50.070;8.436;2022-08-21T07:03:49;100092.94;;;20.29;56.67
40730;BME280;26418;50.070;8.436;2022-08-21T07:06:15;100090.69;;;20.34;57.32
40730;BME280;26418;50.070;8.436;2022-08-21T07:08:40;100089.88;;;20.34;57.43
40730;BME280;26418;50.070;8.436;2022-08-21T07:11:10;100101.63;;;20.31;58.24
40730;BME280;26418;50.070;8.436;2022-08-21T07:13:37;100094.03;;;20.24;58.47
40730;BME280;26418;50.070;8.436;2022-08-21T07:16:02;100100.94;;;20.37;58.20
40730;BME280;26418;50.070;8.436;2022-08-21T07:18:28;100095.09;;;20.39;57.93
40730;BME280;26418;50.070;8.436;2022-08-21T07:20:54;100087.59;;;20.36;57.67
40730;BME280;26418;50.070;8.436;2022-08-21T07:23:29;100106.16;;;20.42;57.87
40730;BME280;26418;50.070;8.436;2022-08-21T07:25:55;100094.81;;;20.44;57.46
40730;BME280;26418;50.070;8.436;2022-08-21T07:28:21;100097.25;;;20.49;57.54
40730;BME280;26418;50.070;8.436;2022-08-21T07:30:50;100100.56;;;20.58;57.20
40730;BME280;26418;50.070;8.436;2022-08-21T07:33:16;100097.22;;;20.69;56.73
40730;BME280;26418;50.070;8.436;2022-08-21T07:35:42;100092.63;;;20.73;56.94
40730;BME280;26418;50.070;8.436;2022-08-21T07:38:07;100092.44;;;20.85;56.31
40730;BME280;26418;50.070;8.436;2022-08-21T07:40:33;100077.97;;;20.88;56.10
40730;BME280;26418;50.070;8.436;2022-08-21T07:42:58;100089.19;;;21.03;56.13
40730;BME280;26418;50.070;8.436;2022-08-21T07:45:24;100088.22;;;21.15;55.52
40730;BME280;26418;50.070;8.436;2022-08-21T07:47:50;100081.81;;;21.34;54.92
40730;BME280;26418;50.070;8.436;2022-08-21T07:50:16;100078.44;;;21.44;54.63
40730;BME280;26418;50.070;8.436;2022-08-21T07:52:42;100079.03;;;21.57;54.56
40730;BME280;26418;50.070;8.436;2022-08-21T07:55:13;100077.97;;;21.65;53.88
40730;BME280;26418;50.070;8.436;2022-08-21T07:57:39;100072.19;;;21.74;53.90
40730;BME280;26418;50.070;8.436;2022-08-21T08:00:08;100077.47;;;21.87;53.76
40730;BME280;26418;50.070;8.436;2022-08-21T08:02:34;100069.78;;;21.99;53.28
40730;BME280;26418;50.070;8.436;2022-08-21T08:05:05;100067.59;;;22.16;52.62
40730;BME280;26418;50.070;8.436;2022-08-21T08:07:31;100070.94;;;22.33;52.24
40730;BME280;26418;50.070;8.436;2022-08-21T08:09:57;100060.06;;;22.43;51.38
40730;BME280;26418;50.070;8.436;2022-08-21T08:12:27;100061.78;;;22.59;51.83
40730;BME280;26418;50.070;8.436;2022-08-21T08:14:59;100057.69;;;22.83;51.49
40730;BME280;26418;50.070;8.436;2022-08-21T08:17:25;100037.25;;;22.91;51.15
40730;BME280;26418;50.070;8.436;2022-08-21T08:19:52;100058.47;;;23.29;50.64
40730;BME280;26418;50.070;8.436;2022-08-21T08:22:22;100061.34;;;23.50;50.19
40730;BME280;26418;50.070;8.436;2022-08-21T08:24:51;100062.66;;;23.71;49.66
40730;BME280;26418;50.070;8.436;2022-08-21T08:27:17;100057.59;;;23.88;48.87
40730;BME280;26418;50.070;8.436;2022-08-21T08:29:44;100050.97;;;24.03;48.58
40730;BME280;26418;50.070;8.436;2022-08-21T08:32:10;100048.66;;;24.16;48.24
40730;BME280;26418;50.070;8.436;2022-08-21T08:34:36;100050.28;;;24.35;47.89
40730;BME280;26418;50.070;8.436;2022-08-21T08:37:03;100042.38;;;24.44;47.88
40730;BME280;26418;50.070;8.436;2022-08-21T08:39:29;100045.16;;;24.59;47.39
40730;BME280;26418;50.070;8.436;2022-08-21T08:42:17;100044.81;;;24.75;47.32
40730;BME280;26418;50.070;8.436;2022-08-21T08:44:45;100031.78;;;24.83;47.26
40730;BME280;26418;50.070;8.436;2022-08-21T08:47:15;100032.97;;;25.00;47.15
40730;BME280;26418;50.070;8.436;2022-08-21T08:49:49;100027.03;;;25.05;46.32
40730;BME280;26418;50.070;8.436;2022-08-21T08:52:27;100030.56;;;25.16;45.83
40730;BME280;26418;50.070;8.436;2022-08-21T08:55:15;100022.25;;;25.23;45.22
40730;BME280;26418;50.070;8.436;2022-08-21T08:57:45;100026.59;;;25.32;44.77
40730;BME280;26418;50.070;8.436;2022-08-21T09:00:13;100024.19;;;25.37;43.40
40730;BME280;26418;50.070;8.436;2022-08-21T09:02:40;100024.97;;;25.49;42.89
40730;BME280;26418;50.070;8.436;2022-08-21T09:05:07;100017.84;;;25.58;42.38
40730;BME280;26418;50.070;8.436;2022-08-21T09:16:11;100023.38;;;26.44;41.12
40730;BME280;26418;50.070;8.436;2022-08-21T09:21:49;100023.84;;;26.28;39.66
40730;BME280;26418;50.070;8.436;2022-08-21T09:27:15;100007.91;;;26.43;39.67
40730;BME280;26418;50.070;8.436;2022-08-21T09:29:44;100012.41;;;26.75;39.04
40730;BME280;26418;50.070;8.436;2022-08-21T09:32:17;100013.34;;;27.06;38.00
40730;BME280;26418;50.070;8.436;2022-08-21T09:35:13;100010.59;;;27.48;38.26
40730;BME280;26418;50.070;8.436;2022-08-21T09:37:57;100017.22;;;27.89;37.29
40730;BME280;26418;50.070;8.436;2022-08-21T09:45:33;100020.69;;;27.66;36.87
40730;BME280;26418;50.070;8.436;2022-08-21T09:48:28;100008.69;;;28.03;37.35
40730;BME280;26418;50.070;8.436;2022-08-21T09:51:09;99999.91;;;28.36;35.35
40730;BME280;26418;50.070;8.436;2022-08-21T09:53:39;100002.38;;;28.81;34.39
40730;BME280;26418;50.070;8.436;2022-08-21T09:56:27;100005.91;;;29.29;34.45
40730;BME280;26418;50.070;8.436;2022-08-21T09:59:23;99993.88;;;29.73;32.09
40730;BME280;26418;50.070;8.436;2022-08-21T10:01:50;99994.50;;;29.44;31.60
40730;BME280;26418;50.070;8.436;2022-08-21T10:04:33;99995.41;;;29.37;33.08
40730;BME280;26418;50.070;8.436;2022-08-21T10:07:10;99986.03;;;29.27;31.90
40730;BME280;26418;50.070;8.436;2022-08-21T10:09:36;99983.00;;;28.98;32.24
40730;BME280;26418;50.070;8.436;2022-08-21T10:12:21;99985.34;;;28.99;31.97
40730;BME280;26418;50.070;8.436;2022-08-21T10:21:05;99974.59;;;29.22;32.15
40730;BME280;26418;50.070;8.436;2022-08-21T10:23:45;99963.59;;;29.55;31.40
40730;BME280;26418;50.070;8.436;2022-08-21T10:36:47;99970.53;;;30.86;28.13
40730;BME280;26418;50.070;8.436;2022-08-21T10:55:16;99941.81;;;30.56;28.03
40730;BME280;26418;50.070;8.436;2022-08-21T11:00:51;99942.25;;;31.30;27.38
40730;BME280;26418;50.070;8.436;2022-08-21T11:03:33;99939.81;;;31.58;26.79
40730;BME280;26418;50.070;8.436;2022-08-21T11:06:25;99930.03;;;32.05;26.77
40730;BME280;26418;50.070;8.436;2022-08-21T11:08:58;99928.41;;;32.42;26.28
40730;BME280;26418;50.070;8.436;2022-08-21T11:11:42;99931.97;;;32.91;25.61
40730;BME280;26418;50.070;8.436;2022-08-21T11:17:09;99914.94;;;33.30;24.96
40730;BME280;26418;50.070;8.436;2022-08-21T11:19:48;99918.22;;;33.50;24.17
40730;BME280;26418;50.070;8.436;2022-08-21T11:22:49;99920.50;;;33.43;23.88
40730;BME280;26418;50.070;8.436;2022-08-21T11:25:26;99913.38;;;33.51;24.17
40730;BME280;26418;50.070;8.436;2022-08-21T11:28:02;99912.88;;;33.43;23.88
40730;BME280;26418;50.070;8.436;2022-08-21T11:30:48;99909.97;;;33.88;23.84
40730;BME280;26418;50.070;8.436;2022-08-21T11:39:24;99901.09;;;34.95;23.06
40730;BME280;26418;50.070;8.436;2022-08-21T11:44:50;99904.44;;;35.46;21.64
40730;BME280;26418;50.070;8.436;2022-08-21T11:50:23;99894.97;;;35.15;21.77
40730;BME280;26418;50.070;8.436;2022-08-21T11:54:01;99905.50;;;35.39;21.79
40730;BME280;26418;50.070;8.436;2022-08-21T11:56:02;99891.78;;;35.41;21.32
40730;BME280;26418;50.070;8.436;2022-08-21T11:58:56;99884.59;;;35.73;21.63
40730;BME280;26418;50.070;8.436;2022-08-21T12:01:31;99886.44;;;36.10;21.30
40730;BME280;26418;50.070;8.436;2022-08-21T12:04:03;99888.16;;;36.41;20.48
40730;BME280;26418;50.070;8.436;2022-08-21T12:06:37;99873.66;;;36.09;19.91
40730;BME280;26418;50.070;8.436;2022-08-21T12:09:51;99890.41;;;35.27;20.84
40730;BME280;26418;50.070;8.436;2022-08-21T12:12:25;99875.91;;;35.10;21.71
40730;BME280;26418;50.070;8.436;2022-08-21T12:15:05;99874.56;;;34.96;21.32
40730;BME280;26418;50.070;8.436;2022-08-21T12:17:37;99883.78;;;35.39;21.43
40730;BME280;26418;50.070;8.436;2022-08-21T12:22:53;99882.84;;;35.52;20.97
40730;BME280;26418;50.070;8.436;2022-08-21T12:25:21;99867.72;;;36.07;20.71
40730;BME280;26418;50.070;8.436;2022-08-21T12:32:59;99886.97;;;35.75;20.65
40730;BME280;26418;50.070;8.436;2022-08-21T12:35:30;99886.72;;;35.54;20.29
40730;BME280;26418;50.070;8.436;2022-08-21T12:40:43;99869.25;;;34.42;22.13
40730;BME280;26418;50.070;8.436;2022-08-21T12:45:58;99862.16;;;33.91;21.67
40730;BME280;26418;50.070;8.436;2022-08-21T12:48:58;99868.72;;;34.07;22.15
40730;BME280;26418;50.070;8.436;2022-08-21T12:51:33;99871.72;;;33.72;21.98
40730;BME280;26418;50.070;8.436;2022-08-21T12:54:01;99860.25;;;33.47;22.61
40730;BME280;26418;50.070;8.436;2022-08-21T12:56:31;99862.38;;;33.34;22.83
40730;BME280;26418;50.070;8.436;2022-08-21T12:59:02;99848.50;;;33.08;22.13
40730;BME280;26418;50.070;8.436;2022-08-21T13:01:33;99856.84;;;32.99;23.06
40730;BME280;26418;50.070;8.436;2022-08-21T13:04:03;99846.69;;;32.92;23.37
40730;BME280;26418;50.070;8.436;2022-08-21T13:06:37;99834.31;;;32.80;23.54
40730;BME280;26418;50.070;8.436;2022-08-21T13:09:12;99837.03;;;32.49;24.01
40730;BME280;26418;50.070;8.436;2022-08-21T13:11:41;99842.56;;;31.40;24.58
40730;BME280;26418;50.070;8.436;2022-08-21T13:14:20;99860.22;;;30.94;25.36
40730;BME280;26418;50.070;8.436;2022-08-21T13:16:53;99846.22;;;30.35;25.96
40730;BME280;26418;50.070;8.436;2022-08-21T13:19:19;99860.38;;;29.95;26.72
40730;BME280;26418;50.070;8.436;2022-08-21T13:21:45;99873.00;;;29.83;26.95
40730;BME280;26418;50.070;8.436;2022-08-21T13:24:29;99851.13;;;29.82;26.90
40730;BME280;26418;50.070;8.436;2022-08-21T13:26:56;99855.50;;;30.16;27.56
40730;BME280;26418;50.070;8.436;2022-08-21T13:29:27;99858.94;;;30.53;26.71
40730;BME280;26418;50.070;8.436;2022-08-21T13:31:53;99851.47;;;30.79;26.01
40730;BME280;26418;50.070;8.436;2022-08-21T13:34:22;99829.56;;;30.78;26.02
40730;BME280;26418;50.070;8.436;2022-08-21T13:36:52;99849.81;;;30.82;25.42
40730;BME280;26418;50.070;8.436;2022-08-21T13:39:19;99838.22;;;30.96;25.83
40730;BME280;26418;50.070;8.436;2022-08-21T13:41:49;99829.72;;;31.00;25.65
40730;BME280;26418;50.070;8.436;2022-08-21T13:44:21;99834.50;;;31.16;25.89
40730;BME280;26418;50.070;8.436;2022-08-21T13:46:52;99834.03;;;31.17;25.66
40730;BME280;26418;50.070;8.436;2022-08-21T13:49:22;99823.75;;;31.14;25.56
40730;BME280;26418;50.070;8.436;2022-08-21T13:51:48;99820.38;;;31.07;25.54
40730;BME280;26418;50.070;8.436;2022-08-21T13:54:37;99828.56;;;31.14;25.19
40730;BME280;26418;50.070;8.436;2022-08-21T13:57:16;99812.59;;;31.14;25.07
40730;BME280;26418;50.070;8.436;2022-08-21T13:59:41;99821.25;;;31.03;25.44
40730;BME280;26418;50.070;8.436;2022-08-21T14:02:17;99814.84;;;30.90;25.63
40730;BME280;26418;50.070;8.436;2022-08-21T14:04:51;99823.47;;;30.96;25.34
40730;BME280;26418;50.070;8.436;2022-08-21T14:07:52;99821.91;;;30.95;25.46
40730;BME280;26418;50.070;8.436;2022-08-21T14:10:18;99826.94;;;31.00;25.48
40730;BME280;26418;50.070;8.436;2022-08-21T14:12:52;99817.13;;;31.08;25.43
40730;BME280;26418;50.070;8.436;2022-08-21T14:15:26;99814.41;;;30.92;24.67
40730;BME280;26418;50.070;8.436;2022-08-21T14:17:54;99812.56;;;30.59;25.14
40730;BME280;26418;50.070;8.436;2022-08-21T14:20:33;99814.34;;;30.20;25.44
40730;BME280;26418;50.070;8.436;2022-08-21T14:22:59;99811.00;;;29.95;25.82
40730;BME280;26418;50.070;8.436;2022-08-21T14:27:56;99809.31;;;29.48;26.48
40730;BME280;26418;50.070;8.436;2022-08-21T14:30:29;99811.63;;;29.33;26.83
40730;BME280;26418;50.070;8.436;2022-08-21T14:32:56;99810.78;;;29.16;27.18
40730;BME280;26418;50.070;8.436;2022-08-21T14:35:22;99809.88;;;29.03;27.25
40730;BME280;26418;50.070;8.436;2022-08-21T14:37:48;99790.47;;;28.79;27.26